(Default Airport = EGHI - Southampton International)

METAR = EGHI 181950Z VRB01KT 9999 VCSH FEW038 17/11 Q1015

STATION........ EGHI
OBSERVED....... Wed May 18, 20:50 BST
NOW............ Thu May 19, 00:22 BST
AGE............ 3:32 hr ago
WIND........... varies at 1 mph
VISIBILITY..... 16 miles
CONDITIONS..... nearby showers
CLOUDS......... partly cloudy
TEMP........... 63°F (17°C)
DEWPT.......... 52°F (11°C)
HUMIDITY....... 68%
BAROMETER...... 1015 hPa (29.97 in Hg)


    Get Weather Info from Airport: